createdAt,value
2018-10-12T00:01:15.478Z,101234.67
2018-10-12T00:03:44.823Z,101232.78
2018-10-12T00:06:14.416Z,101231.34
2018-10-12T00:08:43.679Z,101224.54
2018-10-12T00:11:13.025Z,101209.61
2018-10-12T00:13:42.347Z,101197.89
2018-10-12T00:16:11.632Z,101193.36
2018-10-12T00:18:40.947Z,101201.33
2018-10-12T00:21:10.414Z,101215.84
2018-10-12T00:23:39.869Z,101225.91
2018-10-12T00:26:09.408Z,101220.56
2018-10-12T00:28:39.448Z,101221.02
2018-10-12T00:31:08.765Z,101214.33
2018-10-12T00:33:38.071Z,101216.41
2018-10-12T00:36:07.566Z,101220.65
2018-10-12T00:38:36.973Z,101215.84
2018-10-12T00:41:06.326Z,101218.08
2018-10-12T00:43:35.564Z,101217.85
2018-10-12T00:46:04.888Z,101220.65
2018-10-12T00:48:34.158Z,101231.38
2018-10-12T00:51:03.397Z,101238.20
2018-10-12T00:53:32.618Z,101243.92
2018-10-12T00:56:01.902Z,101233.11
2018-10-12T00:58:31.392Z,101234.90
2018-10-12T01:01:00.569Z,101242.27
2018-10-12T01:03:29.932Z,101251.48
2018-10-12T01:05:59.481Z,101244.31
2018-10-12T01:08:28.798Z,101246.76
2018-10-12T01:10:58.286Z,101245.11
2018-10-12T01:13:27.614Z,101247.00
2018-10-12T01:15:56.997Z,101258.41
2018-10-12T01:18:26.319Z,101252.77
2018-10-12T01:20:55.710Z,101247.00
2018-10-12T01:23:25.126Z,101254.20
2018-10-12T01:25:54.483Z,101253.19
2018-10-12T01:28:24.493Z,101248.70
2018-10-12T01:30:53.914Z,101248.38
2018-10-12T01:33:23.320Z,101257.16
2018-10-12T01:35:52.702Z,101255.17
2018-10-12T01:38:22.050Z,101258.45
2018-10-12T01:40:51.476Z,101258.22
2018-10-12T01:43:20.915Z,101264.48
2018-10-12T01:45:50.253Z,101273.40
2018-10-12T01:48:20.285Z,101274.03
2018-10-12T01:50:49.725Z,101290.23
2018-10-12T01:53:20.320Z,101286.71
2018-10-12T01:55:50.758Z,101279.69
2018-10-12T01:58:24.275Z,101285.29
2018-10-12T02:00:54.228Z,101289.09
2018-10-12T02:03:23.512Z,101290.39
2018-10-12T02:05:52.889Z,101297.67
2018-10-12T02:08:23.233Z,101299.08
2018-10-12T02:10:52.684Z,101304.25
2018-10-12T02:13:21.993Z,101307.64
2018-10-12T02:15:51.453Z,101309.78
2018-10-12T02:18:21.424Z,101319.41
2018-10-12T02:20:51.033Z,101317.19
2018-10-12T02:23:20.742Z,101318.67
2018-10-12T02:25:50.241Z,101322.57
2018-10-12T02:31:32.605Z,101325.75
2018-10-12T02:34:02.103Z,101327.50
2018-10-12T02:36:32.342Z,101332.30
2018-10-12T02:39:02.196Z,101339.00
2018-10-12T02:41:32.744Z,101350.98
2018-10-12T02:44:02.251Z,101346.16
2018-10-12T02:46:31.891Z,101353.80
2018-10-12T02:49:01.347Z,101357.66
2018-10-12T02:51:31.023Z,101353.45
2018-10-12T02:54:00.966Z,101355.80
2018-10-12T02:56:30.352Z,101355.91
2018-10-12T02:58:59.693Z,101354.11
2018-10-12T03:01:29.252Z,101359.54
2018-10-12T03:03:58.946Z,101364.89
2018-10-12T03:06:28.560Z,101371.92
2018-10-12T03:08:58.058Z,101382.62
2018-10-12T03:11:28.165Z,101383.27
2018-10-12T03:13:57.554Z,101384.44
2018-10-12T03:16:26.985Z,101377.06
2018-10-12T03:18:56.560Z,101378.97
2018-10-12T03:21:26.293Z,101372.61
2018-10-12T03:23:56.058Z,101381.73
2018-10-12T03:26:25.736Z,101384.69
2018-10-12T03:28:55.643Z,101383.39
2018-10-12T03:31:25.428Z,101385.98
2018-10-12T03:33:55.262Z,101389.48
2018-10-12T03:36:25.690Z,101383.86
2018-10-12T03:38:55.209Z,101394.86
2018-10-12T03:41:25.730Z,101393.23
2018-10-12T03:43:55.133Z,101384.08
2018-10-12T03:46:24.473Z,101390.77
2018-10-12T03:48:53.916Z,101398.94
2018-10-12T03:51:23.243Z,101395.19
2018-10-12T03:53:52.515Z,101409.59
2018-10-12T03:56:21.841Z,101398.14
2018-10-12T03:58:51.228Z,101407.97
2018-10-12T04:01:20.702Z,101408.09
2018-10-12T04:03:50.047Z,101410.80
2018-10-12T04:06:19.474Z,101417.92
2018-10-12T04:08:49.479Z,101411.34
2018-10-12T04:11:19.056Z,101418.50
2018-10-12T04:13:48.684Z,101423.53
2018-10-12T04:16:18.624Z,101429.44
2018-10-12T04:18:48.287Z,101437.92
2018-10-12T04:21:23.171Z,101447.78
2018-10-12T04:23:52.670Z,101452.05
2018-10-12T04:26:22.568Z,101456.90
2018-10-12T04:28:52.220Z,101460.13
2018-10-12T04:31:25.072Z,101463.87
2018-10-12T04:33:55.244Z,101471.14
2018-10-12T04:36:24.969Z,101474.44
2018-10-12T04:39:05.900Z,101477.47
2018-10-12T04:41:39.787Z,101479.34
2018-10-12T04:44:09.455Z,101482.24
2018-10-12T04:46:43.509Z,101485.52
2018-10-12T04:49:14.775Z,101489.84
2018-10-12T04:51:48.059Z,101500.16
2018-10-12T04:54:17.503Z,101503.05
2018-10-12T04:56:47.358Z,101508.39
2018-10-12T04:59:16.580Z,101512.08
2018-10-12T05:01:46.744Z,101507.75
2018-10-12T05:04:15.961Z,101516.13
2018-10-12T05:06:45.219Z,101518.73
2018-10-12T05:09:15.299Z,101515.03
2018-10-12T05:11:50.041Z,101518.07
2018-10-12T05:14:20.710Z,101521.14
2018-10-12T05:16:50.497Z,101523.51
2018-10-12T05:19:20.732Z,101524.00
2018-10-12T05:21:56.912Z,101519.88
2018-10-12T05:24:26.988Z,101533.10
2018-10-12T05:26:57.101Z,101527.61
2018-10-12T05:29:27.024Z,101527.69
2018-10-12T05:31:57.992Z,101533.47
2018-10-12T05:34:28.215Z,101541.43
2018-10-12T05:36:57.473Z,101547.76
2018-10-12T05:39:26.816Z,101548.33
2018-10-12T05:41:56.068Z,101555.23
2018-10-12T05:44:25.351Z,101550.12
2018-10-12T05:46:54.648Z,101558.69
2018-10-12T05:49:35.186Z,101563.58
2018-10-12T05:52:05.590Z,101571.16
2018-10-12T05:54:34.981Z,101575.33
2018-10-12T05:57:04.338Z,101581.23
2018-10-12T05:59:33.744Z,101585.10
2018-10-12T06:02:04.268Z,101593.28
2018-10-12T06:04:33.919Z,101602.98
2018-10-12T06:07:04.380Z,101607.59
2018-10-12T06:09:33.833Z,101606.45
2018-10-12T06:12:03.066Z,101600.01
2018-10-12T06:14:32.423Z,101606.27
2018-10-12T06:17:01.675Z,101603.88
2018-10-12T06:19:32.860Z,101610.47
2018-10-12T06:22:03.011Z,101615.76
2018-10-12T06:24:32.543Z,101615.58
2018-10-12T06:27:02.048Z,101622.81
2018-10-12T06:29:31.689Z,101628.80
2018-10-12T06:32:02.064Z,101634.62
2018-10-12T06:34:33.302Z,101639.31
2018-10-12T06:37:03.798Z,101644.81
2018-10-12T06:39:34.372Z,101649.27
2018-10-12T06:42:06.765Z,101655.62
2018-10-12T06:44:38.057Z,101662.67
2018-10-12T06:47:08.440Z,101663.73
2018-10-12T06:49:39.129Z,101660.32
2018-10-12T06:52:12.186Z,101663.36
2018-10-12T06:54:43.513Z,101666.09
2018-10-12T06:57:13.861Z,101665.07
2018-10-12T06:59:43.822Z,101674.41
2018-10-12T07:02:19.550Z,101672.20
2018-10-12T07:04:51.272Z,101675.09
2018-10-12T07:07:21.298Z,101670.94
2018-10-12T07:09:52.628Z,101669.08
2018-10-12T07:12:25.388Z,101674.20
2018-10-12T07:14:56.581Z,101685.45
2018-10-12T07:17:27.400Z,101680.80
2018-10-12T07:19:57.534Z,101683.26
2018-10-12T07:22:28.402Z,101683.91
2018-10-12T07:24:59.756Z,101681.70
2018-10-12T07:27:31.036Z,101685.83
2018-10-12T07:30:02.235Z,101683.97
2018-10-12T07:32:32.503Z,101689.50
2018-10-12T07:35:02.864Z,101690.98
2018-10-12T07:37:33.322Z,101696.20
2018-10-12T07:40:03.972Z,101700.94
2018-10-12T07:42:35.524Z,101706.16
2018-10-12T07:45:08.156Z,101704.25
2018-10-12T07:47:46.687Z,101715.63
2018-10-12T07:50:17.160Z,101723.12
2018-10-12T07:52:50.908Z,101720.11
2018-10-12T07:55:22.439Z,101727.08
2018-10-12T07:57:53.217Z,101721.31
2018-10-12T08:00:23.234Z,101723.58
2018-10-12T08:02:55.528Z,101723.41
2018-10-12T08:05:25.667Z,101723.27
2018-10-12T08:07:56.235Z,101718.81
2018-10-12T08:10:27.266Z,101728.13
2018-10-12T08:12:59.988Z,101729.53
2018-10-12T08:15:29.631Z,101731.84
2018-10-12T08:17:59.304Z,101737.73
2018-10-12T08:20:31.222Z,101730.95
2018-10-12T08:23:06.539Z,101730.75
2018-10-12T08:25:36.667Z,101738.17
2018-10-12T08:28:06.631Z,101736.23
2018-10-12T08:30:36.057Z,101738.63
2018-10-12T08:33:06.592Z,101749.20
2018-10-12T08:35:35.993Z,101745.96
2018-10-12T08:38:05.380Z,101747.30
2018-10-12T08:40:34.618Z,101751.06
2018-10-12T08:43:03.978Z,101750.05
2018-10-12T08:45:33.388Z,101747.66
2018-10-12T08:48:02.677Z,101747.78
2018-10-12T08:50:32.945Z,101752.06
2018-10-12T08:53:02.245Z,101757.11
2018-10-12T08:55:31.553Z,101760.44
2018-10-12T08:58:00.783Z,101758.57
2018-10-12T09:00:30.158Z,101753.05
2018-10-12T09:02:59.430Z,101755.06
2018-10-12T09:05:28.665Z,101763.07
2018-10-12T09:07:57.931Z,101756.63
2018-10-12T09:10:27.211Z,101757.20
2018-10-12T09:12:56.516Z,101755.79
2018-10-12T09:15:25.764Z,101755.45
2018-10-12T09:17:55.066Z,101755.85
2018-10-12T09:20:24.602Z,101761.08
2018-10-12T09:22:54.051Z,101766.27
2018-10-12T09:25:23.314Z,101770.11
2018-10-12T09:27:52.590Z,101762.36
2018-10-12T09:30:21.873Z,101755.07
2018-10-12T09:32:51.106Z,101765.47
2018-10-12T09:35:20.430Z,101768.90
2018-10-12T09:37:49.672Z,101764.79
2018-10-12T09:40:18.887Z,101763.38
2018-10-12T09:42:48.664Z,101755.23
2018-10-12T09:45:17.890Z,101748.31
2018-10-12T09:47:47.129Z,101749.40
2018-10-12T09:50:16.430Z,101745.70
2018-10-12T09:52:45.735Z,101747.42
2018-10-12T09:55:15.034Z,101743.38
2018-10-12T09:57:44.609Z,101744.48
2018-10-12T10:00:19.184Z,101746.89
2018-10-12T10:02:54.543Z,101743.72
2018-10-12T10:05:23.839Z,101745.85
2018-10-12T10:07:53.173Z,101738.91
2018-10-12T10:10:22.409Z,101746.19
2018-10-12T10:12:52.716Z,101754.05
2018-10-12T10:15:22.046Z,101747.69
2018-10-12T10:17:51.293Z,101743.20
2018-10-12T10:20:20.719Z,101743.45
2018-10-12T10:22:49.987Z,101744.34
2018-10-12T10:25:19.389Z,101747.05
2018-10-12T10:27:48.684Z,101749.19
2018-10-12T10:30:18.091Z,101746.23
2018-10-12T10:32:47.532Z,101742.68
2018-10-12T10:35:17.911Z,101749.95
2018-10-12T10:37:47.274Z,101747.59
2018-10-12T10:40:16.924Z,101755.42
2018-10-12T10:42:46.195Z,101758.52
2018-10-12T10:45:15.951Z,101756.59
2018-10-12T10:47:45.186Z,101758.09
2018-10-12T10:50:14.459Z,101752.23
2018-10-12T10:52:44.155Z,101767.36
2018-10-12T10:55:14.408Z,101773.57
2018-10-12T10:57:43.971Z,101785.72
2018-10-12T11:00:13.230Z,101781.45
2018-10-12T11:02:42.486Z,101783.23
2018-10-12T11:05:11.675Z,101784.20
2018-10-12T11:07:40.930Z,101788.68
2018-10-12T11:10:10.146Z,101784.30
2018-10-12T11:12:39.463Z,101777.77
2018-10-12T11:15:08.703Z,101775.53
2018-10-12T11:17:37.997Z,101772.93
2018-10-12T11:20:07.350Z,101777.84
2018-10-12T11:22:36.654Z,101767.57
2018-10-12T11:25:05.923Z,101772.05
2018-10-12T11:27:35.160Z,101771.50
2018-10-12T11:30:04.529Z,101761.30
2018-10-12T11:32:33.779Z,101761.85
2018-10-12T11:35:04.679Z,101760.13
2018-10-12T11:37:33.911Z,101758.58
2018-10-12T11:40:03.160Z,101761.34
2018-10-12T11:43:40.232Z,101764.38
2018-10-12T11:46:09.433Z,101756.27
2018-10-12T11:48:38.707Z,101754.71
2018-10-12T11:51:08.074Z,101749.30
2018-10-12T11:53:37.322Z,101742.72
2018-10-12T11:56:06.639Z,101746.95
2018-10-12T11:58:35.836Z,101741.66
2018-10-12T12:01:05.133Z,101741.44
2018-10-12T12:03:34.349Z,101747.80
2018-10-12T12:06:03.571Z,101740.64
2018-10-12T12:08:32.794Z,101745.78
2018-10-12T12:11:02.027Z,101738.59
2018-10-12T12:13:31.267Z,101742.52
2018-10-12T12:16:00.521Z,101741.52
2018-10-12T12:18:29.741Z,101744.17
2018-10-12T12:20:58.954Z,101747.47
2018-10-12T12:23:28.177Z,101747.69
2018-10-12T12:25:57.390Z,101759.14
2018-10-12T12:28:26.705Z,101746.00
2018-10-12T12:30:55.945Z,101747.79
2018-10-12T12:33:25.203Z,101749.61
2018-10-12T12:35:55.142Z,101745.89
2018-10-12T12:38:24.080Z,101746.86
2018-10-12T12:40:53.422Z,101749.47
2018-10-12T12:43:22.725Z,101757.29
2018-10-12T12:45:52.167Z,101751.78
2018-10-12T12:48:21.645Z,101752.26
2018-10-12T12:50:50.659Z,101760.61
2018-10-12T12:53:20.072Z,101756.19
2018-10-12T12:55:49.307Z,101750.11
2018-10-12T12:58:18.611Z,101752.09
2018-10-12T13:00:48.231Z,101749.63
2018-10-12T13:03:17.829Z,101758.28
2018-10-12T13:05:47.733Z,101760.39
2018-10-12T13:08:17.131Z,101752.50
2018-10-12T13:10:46.492Z,101754.87
2018-10-12T13:13:15.771Z,101761.55
2018-10-12T13:15:45.094Z,101757.32
2018-10-12T13:18:14.595Z,101755.77
2018-10-12T13:20:43.946Z,101758.29
2018-10-12T13:23:13.316Z,101756.75
2018-10-12T13:25:42.719Z,101747.88
2018-10-12T13:28:12.130Z,101740.62
2018-10-12T13:30:42.223Z,101739.31
2018-10-12T13:33:11.523Z,101749.03
2018-10-12T13:35:40.847Z,101763.74
2018-10-12T13:38:10.069Z,101763.95
2018-10-12T13:40:39.359Z,101764.23
2018-10-12T13:43:08.639Z,101762.34
2018-10-12T13:45:37.847Z,101763.48
2018-10-12T13:48:07.318Z,101761.75
2018-10-12T13:50:36.965Z,101757.90
2018-10-12T13:53:07.041Z,101764.50
2018-10-12T13:55:36.446Z,101766.69
2018-10-12T13:58:05.751Z,101763.75
2018-10-12T14:00:35.749Z,101761.93
2018-10-12T14:03:06.101Z,101753.28
2018-10-12T14:05:35.334Z,101749.61
2018-10-12T14:08:04.833Z,101759.32
2018-10-12T14:10:34.113Z,101748.66
2018-10-12T14:13:03.520Z,101750.38
2018-10-12T14:15:32.814Z,101749.33
2018-10-12T14:18:02.183Z,101753.26
2018-10-12T14:20:31.554Z,101757.36
2018-10-12T14:23:00.855Z,101756.63
2018-10-12T14:25:30.120Z,101742.48
2018-10-12T14:27:59.491Z,101746.42
2018-10-12T14:30:28.855Z,101743.35
2018-10-12T14:32:58.241Z,101744.08
2018-10-12T14:35:30.631Z,101734.91
2018-10-12T14:38:00.373Z,101732.73
2018-10-12T14:40:30.416Z,101734.64
2018-10-12T14:43:01.811Z,101735.66
2018-10-12T14:45:32.672Z,101720.56
2018-10-12T14:48:03.291Z,101729.76
2018-10-12T14:50:33.052Z,101720.98
2018-10-12T14:53:04.165Z,101714.43
2018-10-12T14:55:34.166Z,101718.35
2018-10-12T14:58:04.212Z,101717.83
2018-10-12T15:00:34.807Z,101722.59
2018-10-12T15:03:05.500Z,101724.78
2018-10-12T15:05:35.555Z,101720.70
2018-10-12T15:08:05.922Z,101721.67
2018-10-12T15:10:35.982Z,101724.28
2018-10-12T15:13:06.924Z,101724.48
2018-10-12T15:15:36.412Z,101722.97
2018-10-12T15:18:06.283Z,101724.04
2018-10-12T15:20:36.475Z,101727.59
2018-10-12T15:23:07.223Z,101724.78
2018-10-12T15:25:37.959Z,101730.30
2018-10-12T15:28:08.006Z,101728.13
2018-10-12T15:30:38.198Z,101726.88
2018-10-12T15:33:09.896Z,101721.00
2018-10-12T15:35:40.662Z,101722.78
2018-10-12T15:38:11.349Z,101725.09
2018-10-12T15:40:41.743Z,101729.53
2018-10-12T15:43:12.304Z,101729.53
2018-10-12T15:45:42.781Z,101726.85
2018-10-12T15:48:13.322Z,101727.44
2018-10-12T15:50:43.993Z,101735.14
2018-10-12T15:53:14.571Z,101736.77
2018-10-12T15:55:45.038Z,101739.02
2018-10-12T15:58:14.622Z,101728.25
2018-10-12T16:00:45.467Z,101729.48
2018-10-12T16:03:15.493Z,101728.74
2018-10-12T16:05:45.390Z,101729.75
2018-10-12T16:08:15.865Z,101739.01
2018-10-12T16:10:47.024Z,101733.11
2018-10-12T16:13:19.104Z,101734.74
2018-10-12T16:15:49.131Z,101735.28
2018-10-12T16:18:20.039Z,101731.38
2018-10-12T16:20:50.603Z,101726.84
2018-10-12T16:23:21.329Z,101732.45
2018-10-12T16:26:03.509Z,101734.50
2018-10-12T16:28:34.211Z,101733.45
2018-10-12T16:31:04.658Z,101736.44
2018-10-12T16:33:36.491Z,101743.59
2018-10-12T16:36:07.124Z,101739.76
2018-10-12T16:38:37.674Z,101739.16
2018-10-12T16:41:07.224Z,101742.83
2018-10-12T16:43:38.178Z,101747.19
2018-10-12T16:46:07.763Z,101751.37
2018-10-12T16:48:37.454Z,101751.84
2018-10-12T16:51:07.105Z,101752.52
2018-10-12T16:53:36.796Z,101749.11
2018-10-12T16:56:06.883Z,101753.97
2018-10-12T16:58:37.475Z,101750.08
2018-10-12T17:01:07.991Z,101756.83
2018-10-12T17:03:40.290Z,101752.45
2018-10-12T17:06:09.760Z,101764.63
2018-10-12T17:08:39.133Z,101765.09
2018-10-12T17:11:08.465Z,101765.92
2018-10-12T17:13:38.357Z,101761.81
2018-10-12T17:16:07.880Z,101760.98
2018-10-12T17:18:37.204Z,101762.92
2018-10-12T17:21:06.523Z,101769.98
2018-10-12T17:23:35.875Z,101768.72
2018-10-12T17:26:05.161Z,101772.58
2018-10-12T17:28:34.412Z,101771.20
2018-10-12T17:31:03.887Z,101774.41
2018-10-12T17:33:33.118Z,101775.59
2018-10-12T17:36:02.384Z,101769.70
2018-10-12T17:38:31.639Z,101776.44
2018-10-12T17:41:19.747Z,101774.66
2018-10-12T17:43:51.853Z,101771.91
2018-10-12T17:46:21.198Z,101777.33
2018-10-12T17:48:50.860Z,101776.17
2018-10-12T17:51:20.611Z,101773.16
2018-10-12T17:53:50.606Z,101779.06
2018-10-12T17:56:20.012Z,101782.55
2018-10-12T17:58:49.536Z,101779.57
2018-10-12T18:01:19.757Z,101783.23
2018-10-12T18:03:50.187Z,101785.58
2018-10-12T18:06:19.590Z,101794.06
2018-10-12T18:08:49.168Z,101794.12
2018-10-12T18:11:18.575Z,101792.08
2018-10-12T18:13:48.006Z,101796.25
2018-10-12T18:16:17.299Z,101791.19
2018-10-12T18:18:46.648Z,101795.36
2018-10-12T18:21:16.179Z,101796.80
2018-10-12T18:23:46.117Z,101788.72
2018-10-12T18:26:15.526Z,101788.46
2018-10-12T18:28:45.323Z,101787.75
2018-10-12T18:31:14.646Z,101784.88
2018-10-12T18:33:43.988Z,101785.02
2018-10-12T18:36:13.386Z,101787.41
2018-10-12T18:38:42.755Z,101788.16
2018-10-12T18:41:12.267Z,101786.40
2018-10-12T18:43:41.655Z,101784.94
2018-10-12T18:46:11.007Z,101786.05
2018-10-12T18:48:40.454Z,101790.40
2018-10-12T18:51:09.823Z,101791.25
2018-10-12T18:53:39.977Z,101790.50
2018-10-12T18:56:09.220Z,101791.41
2018-10-12T18:58:39.027Z,101793.62
2018-10-12T19:01:08.617Z,101793.50
2018-10-12T19:03:38.055Z,101796.50
2018-10-12T19:06:07.415Z,101805.89
2018-10-12T19:08:37.095Z,101808.94
2018-10-12T19:11:06.697Z,101809.08
2018-10-12T19:13:37.099Z,101805.39
2018-10-12T19:16:06.587Z,101816.53
2018-10-12T19:18:35.989Z,101815.30
2018-10-12T19:21:05.333Z,101813.59
2018-10-12T19:23:41.346Z,101812.01
2018-10-12T19:26:11.095Z,101816.67
2018-10-12T19:28:40.334Z,101808.72
2018-10-12T19:31:09.686Z,101820.28
2018-10-12T19:33:39.178Z,101818.80
2018-10-12T19:36:08.490Z,101814.29
2018-10-12T19:38:37.796Z,101823.89
2018-10-12T19:41:07.082Z,101818.73
2018-10-12T19:43:36.347Z,101820.17
2018-10-12T19:46:05.686Z,101820.45
2018-10-12T19:48:34.927Z,101822.45
2018-10-12T19:51:04.270Z,101818.47
2018-10-12T19:53:33.537Z,101822.92
2018-10-12T19:56:02.874Z,101827.74
2018-10-12T19:58:32.159Z,101827.81
2018-10-12T20:01:01.461Z,101825.08
2018-10-12T20:03:30.764Z,101824.86
2018-10-12T20:06:00.073Z,101829.54
2018-10-12T20:08:29.352Z,101828.60
2018-10-12T20:10:58.720Z,101832.81
2018-10-12T20:13:28.346Z,101834.19
2018-10-12T20:15:57.603Z,101836.92
2018-10-12T20:18:27.113Z,101831.98
2018-10-12T20:20:56.478Z,101837.78
2018-10-12T20:23:25.870Z,101849.01
2018-10-12T20:25:55.254Z,101838.31
2018-10-12T20:28:24.752Z,101839.55
2018-10-12T20:30:54.104Z,101845.22
2018-10-12T20:33:23.542Z,101842.29
2018-10-12T20:35:52.872Z,101843.00
2018-10-12T20:38:22.149Z,101842.53
2018-10-12T20:40:51.490Z,101844.61
2018-10-12T20:43:20.894Z,101836.73
2018-10-12T20:45:50.321Z,101840.33
2018-10-12T20:48:19.639Z,101839.87
2018-10-12T20:50:49.373Z,101840.60
2018-10-12T20:53:18.595Z,101844.74
2018-10-12T20:55:49.761Z,101843.66
2018-10-12T20:58:19.178Z,101845.81
2018-10-12T21:00:48.458Z,101846.18
2018-10-12T21:03:18.366Z,101842.45
2018-10-12T21:05:47.705Z,101845.38
2018-10-12T21:08:16.991Z,101843.61
2018-10-12T21:10:46.254Z,101841.14
2018-10-12T21:13:15.514Z,101839.64
2018-10-12T21:15:45.709Z,101841.14
2018-10-12T21:18:14.967Z,101840.83
2018-10-12T21:20:44.219Z,101841.99
2018-10-12T21:23:13.421Z,101843.28
2018-10-12T21:25:42.655Z,101843.78
2018-10-12T21:28:11.946Z,101840.73
2018-10-12T21:30:41.162Z,101845.92
2018-10-12T21:33:10.370Z,101842.88
2018-10-12T21:35:39.648Z,101839.81
2018-10-12T21:38:08.939Z,101849.03
2018-10-12T21:40:38.282Z,101840.52
2018-10-12T21:43:07.726Z,101836.06
2018-10-12T21:45:36.950Z,101831.23
2018-10-12T21:48:06.220Z,101831.55
2018-10-12T21:50:35.513Z,101830.42
2018-10-12T21:53:05.027Z,101834.96
2018-10-12T21:55:35.611Z,101834.78
2018-10-12T21:58:04.933Z,101829.48
2018-10-12T22:00:34.254Z,101828.80
2018-10-12T22:03:03.546Z,101826.12
2018-10-12T22:05:33.461Z,101828.12
2018-10-12T22:08:02.732Z,101824.69
2018-10-12T22:10:32.043Z,101824.13
2018-10-12T22:13:01.334Z,101822.50
2018-10-12T22:15:30.639Z,101813.06
2018-10-12T22:17:59.941Z,101821.35
2018-10-12T22:20:29.185Z,101817.31
2018-10-12T22:22:58.450Z,101816.58
2018-10-12T22:25:27.750Z,101810.01
2018-10-12T22:27:56.980Z,101808.66
2018-10-12T22:30:26.231Z,101805.23
2018-10-12T22:32:55.527Z,101806.39
2018-10-12T22:35:24.847Z,101802.77
2018-10-12T22:37:54.077Z,101806.20
2018-10-12T22:40:23.379Z,101804.67
2018-10-12T22:42:54.866Z,101802.08
2018-10-12T22:45:25.178Z,101797.91
2018-10-12T22:47:54.411Z,101796.53
2018-10-12T22:50:23.691Z,101796.09
2018-10-12T22:52:52.965Z,101791.61
2018-10-12T22:55:22.246Z,101788.32
2018-10-12T22:57:55.628Z,101785.22
2018-10-12T23:00:24.940Z,101787.59
2018-10-12T23:02:54.219Z,101796.56
2018-10-12T23:05:24.377Z,101785.92
2018-10-12T23:07:53.667Z,101795.36
2018-10-12T23:10:23.579Z,101788.41
2018-10-12T23:12:53.038Z,101788.79
2018-10-12T23:15:22.581Z,101793.27
2018-10-12T23:17:51.954Z,101792.81
2018-10-12T23:20:21.299Z,101797.62
2018-10-12T23:22:50.572Z,101791.05
2018-10-12T23:25:19.873Z,101795.61
2018-10-12T23:27:49.258Z,101799.77
2018-10-12T23:30:18.601Z,101806.87
2018-10-12T23:32:47.944Z,101815.98
2018-10-12T23:35:17.252Z,101810.98
2018-10-12T23:37:46.501Z,101816.28
2018-10-12T23:40:15.836Z,101814.52
2018-10-12T23:42:45.157Z,101813.27
2018-10-12T23:45:14.578Z,101812.64
2018-10-12T23:47:49.434Z,101812.88
2018-10-12T23:50:18.775Z,101823.48
2018-10-12T23:52:48.083Z,101828.92
2018-10-12T23:55:17.607Z,101829.05
2018-10-12T23:57:46.924Z,101832.23
